Nearby METAR Reports

 

KPVU - Provo Muni, Utah, USA
Distance from station: S 9mi, 15km
Updated: Thu, 19-Jul-2018 6:56am MDT
Few Clouds
Few Clouds
 Wind from ENE
Wind: ENE 5 mph , 7 km/h
Temperature: 64°F , 18°C
Dew Point: 48°F , 9°C
Humidity: 56%
Barometer: 30.11 inHg , 1019.6 hPa
Clouds: Few Clouds
Visibility: 10 miles , 16 km
Cloud details: Few Clouds 10000 ft
Few Clouds 21000 ft
2018/07/19 12:56 KPVU 191256Z 06004KT 10SM FEW100 FEW210 18/09 A3011 RMK AO2 SLP134 T01780094 $
K36U - Heber/Russ Mcdon, Utah, USA
Distance from station: ENE 17mi, 27km
Updated: Wed, 11-Oct-2017 6:50pm MDT
NOT Current
Clear
Clear
 Wind from SSW
Wind: SSW 10 mph , 17 km/h, Gust: 18 mph , 30 km/h
Temperature: 63°F , 17°C
Dew Point: 16°F , -9°C
Humidity: 16%
Barometer: 29.87 inHg , 1011.5 hPa
Clouds: Clear
Visibility: 10 miles , 16 km
2017/10/12 00:50 K36U 120050Z AUTO 21009G16KT 10SM CLR 17/M09 A2987 RMK AO2
 
KSLC - Salt Lake City, Utah, USA
Distance from station: NNW 33mi, 53km
Updated: Thu, 19-Jul-2018 6:54am MDT
Partly cloudy
Partly cloudy
 Wind from SE
Wind: SE 5 mph , 7 km/h
Temperature: 72°F , 22°C
Dew Point: 37°F , 3°C
Humidity: 29%
Barometer: 30.07 inHg , 1018.3 hPa
Clouds: Partly cloudy
Visibility: 10 miles , 16 km
Cloud details: Partly cloudy 18000 ft
2018/07/19 12:54 KSLC 191254Z 14004KT 10SM SCT180 22/03 A3007 RMK AO2 SLP118 T02220033